Choptank — WDG4555 — position and weather

sailwx.info

Track history (hours):
 
Tides and Currents Weather Stations Pressure Air Temp Water Temp Dewpoint Dewpoint Depression Visibility Wind Speed Wind Dir Waves Ship Positions

Choptank

Owner: Vane Line Bunkering, Philadelphia, PA. More information available from US FCC via Universal Licensing System and Coast Guard Vessel Documentation Center.

Last reported at 2018-Jul-21 04:21 UTC. Time now 2018-Jul-21 07:57 UTC.
Position N 36°53' W 076°20'.

Length 33 m; draft 4.1 m.

Type: Towing. MMSI: 367147860.

Date/timePositionNaut miles runAvg speedWind from/ knotsBaromVisibWave heightAir tempDewpointWater temp
2018-Jul-21 04:21N 36°53' W 076°20'3 9.3
2018-Jul-21 04:00N 36°51' W 076°18'2 0.4
2018-Jul-21 00:11N 36°51' W 076°16'0 0.4
2018-Jul-20 23:50N 36°50' W 076°16'1 2.1
2018-Jul-20 23:29N 36°50' W 076°17'3 5.6
2018-Jul-20 23:00N 36°52' W 076°20'55 5.3
2018-Jul-20 12:38N 37°47' W 076°12'61 8.3
2018-Jul-20 05:17N 38°47' W 076°27'2 7.8
2018-Jul-20 05:00N 38°49' W 076°27'4 7.8
2018-Jul-20 04:30N 38°52' W 076°25'4 7.8
2018-Jul-20 04:01N 38°56' W 076°23'5 7.6
2018-Jul-20 03:22N 39°01' W 076°22'6 7.8
2018-Jul-20 02:33N 39°06' W 076°18'1 8.2
2018-Jul-20 02:29N 39°07' W 076°18'16 8.2
2018-Jul-20 00:34N 39°21' W 076°10'2 9.6
2018-Jul-20 00:24N 39°22' W 076°08'4 9.6
2018-Jul-19 23:59N 39°24' W 076°04'5 9.1
2018-Jul-19 23:28N 39°27' W 075°59'510.0
2018-Jul-19 23:00N 39°30' W 075°55'5 9.9
2018-Jul-19 22:30N 39°32' W 075°49'510.0
2018-Jul-19 22:00N 39°33' W 075°42'5 9.4
2018-Jul-19 21:30N 39°33' W 075°36'3 5.8
2018-Jul-19 21:00N 39°35' W 075°34'2 3.5
2018-Jul-19 20:30N 39°37' W 075°35'3 6.7
2018-Jul-19 20:00N 39°40' W 075°32'4 7.4
2018-Jul-19 19:30N 39°43' W 075°30'4 7.7
2018-Jul-19 19:00N 39°46' W 075°28'4 8.3
2018-Jul-19 18:30N 39°49' W 075°24'5 9.4
2018-Jul-19 17:58N 39°51' W 075°18'4 9.7
2018-Jul-19 17:30N 39°52' W 075°12'1 1.1
2018-Jul-19 16:25N 39°54' W 075°12'0 0.0
2018-Jul-19 16:00N 39°54' W 075°12'0 0.0
2018-Jul-19 15:30N 39°54' W 075°12'0 0.0
2018-Jul-19 15:00N 39°54' W 075°12'0 0.0
2018-Jul-19 14:00N 39°54' W 075°12'0 0.0
2018-Jul-19 13:30N 39°54' W 075°12'0 0.0
2018-Jul-19 13:00N 39°54' W 075°12'0 0.0
2018-Jul-19 12:30N 39°54' W 075°12'0 0.0
2018-Jul-19 12:00N 39°54' W 075°12'0 0.0
2018-Jul-19 11:30N 39°54' W 075°12'0 0.0
2018-Jul-19 11:00N 39°54' W 075°12'0 0.0
2018-Jul-19 10:31N 39°54' W 075°12'0 0.0
2018-Jul-19 10:00N 39°54' W 075°12'0 0.0
2018-Jul-19 09:29N 39°54' W 075°12'0 0.2
2018-Jul-19 09:00N 39°54' W 075°12'1 2.2
2018-Jul-19 08:30N 39°52' W 075°12'1 1.8
2018-Jul-19 08:01N 39°52' W 075°13'2 4.7
2018-Jul-19 07:30N 39°51' W 075°16'2 4.8
2018-Jul-19 07:00N 39°52' W 075°13'2 3.9
2018-Jul-19 06:30N 39°53' W 075°12'0 0.0
2018-Jul-19 06:00N 39°53' W 075°12'0 0.0
2018-Jul-19 05:30N 39°53' W 075°12'0 0.0
2018-Jul-19 05:01N 39°53' W 075°12'0 0.0
2018-Jul-19 04:30N 39°53' W 075°12'0 0.0
2018-Jul-19 04:01N 39°53' W 075°12'0 0.0
2018-Jul-19 03:31N 39°53' W 075°12'0 0.1
2018-Jul-19 03:01N 39°54' W 075°12'0 0.0
2018-Jul-19 02:31N 39°54' W 075°12'0 0.0
2018-Jul-19 02:01N 39°54' W 075°12'0 0.0
2018-Jul-19 01:31N 39°54' W 075°12'0 0.0
2018-Jul-19 01:00N 39°54' W 075°12'0 0.0
2018-Jul-19 00:31N 39°54' W 075°12'0 0.0
2018-Jul-19 00:00N 39°54' W 075°12'0 0.0
2018-Jul-18 23:31N 39°54' W 075°12'0 0.0
2018-Jul-18 23:00N 39°54' W 075°12'0 0.0
2018-Jul-18 22:30N 39°54' W 075°12'0 0.0
2018-Jul-18 22:00N 39°54' W 075°12'0 0.0
2018-Jul-18 21:30N 39°54' W 075°12'1 1.2
2018-Jul-18 21:00N 39°54' W 075°12'0 0.1
2018-Jul-18 20:31N 39°54' W 075°12'1 1.1
2018-Jul-18 20:00N 39°53' W 075°12'3 5.4
2018-Jul-18 19:30N 39°54' W 075°08'0 0.3
2018-Jul-18 19:00N 39°53' W 075°08'3 6.4
2018-Jul-18 18:30N 39°54' W 075°12'3 6.7
2018-Jul-18 18:00N 39°51' W 075°15'1 1.4
2018-Jul-18 17:31N 39°51' W 075°16'3 5.1
2018-Jul-18 17:00N 39°51' W 075°19'3 5.3
2018-Jul-18 16:30N 39°50' W 075°22'3 5.5
2018-Jul-18 16:00N 39°48' W 075°25'3 5.3
2018-Jul-18 15:29N 39°46' W 075°28'3 5.4
2018-Jul-18 15:00N 39°44' W 075°30'2 5.0
2018-Jul-18 14:30N 39°42' W 075°31'4 4.5
2018-Jul-18 13:31N 39°38' W 075°34'2 4.6
2018-Jul-18 13:00N 39°36' W 075°34'1 2.8
2018-Jul-18 12:30N 39°34' W 075°34'1 2.8
2018-Jul-18 11:59N 39°35' W 075°36'0 0.0
2018-Jul-18 11:29N 39°35' W 075°36'0 0.0
2018-Jul-18 10:30N 39°35' W 075°36'0 0.0
2018-Jul-18 10:00N 39°35' W 075°36'0 0.0
2018-Jul-18 09:28N 39°35' W 075°36'0 0.0
2018-Jul-18 08:58N 39°35' W 075°36'0 0.0
2018-Jul-18 08:28N 39°35' W 075°36'0 0.0
2018-Jul-18 07:59N 39°35' W 075°36'0 0.0
2018-Jul-18 07:29N 39°35' W 075°36'0 0.0
2018-Jul-18 06:59N 39°35' W 075°36'0 0.0
2018-Jul-18 06:30N 39°35' W 075°36'0 0.0
2018-Jul-18 06:00N 39°35' W 075°36'0 0.0
2018-Jul-18 05:30N 39°35' W 075°36'0 0.0
2018-Jul-18 04:58N 39°35' W 075°36'0 0.0
2018-Jul-18 04:28N 39°35' W 075°36'0 0.0
2018-Jul-18 03:58N 39°35' W 075°36'0 0.0
2018-Jul-18 03:29N 39°35' W 075°36'0 0.0
2018-Jul-18 02:59N 39°35' W 075°36'0 0.0
2018-Jul-18 02:29N 39°35' W 075°36'0 0.0
2018-Jul-18 02:00N 39°35' W 075°36'0 0.0
2018-Jul-18 01:30N 39°35' W 075°36'0 0.0
2018-Jul-18 01:00N 39°35' W 075°36'0 0.0
2018-Jul-18 00:28N 39°35' W 075°36'0 0.0
2018-Jul-17 23:58N 39°35' W 075°36'0 0.0
2018-Jul-17 23:28N 39°35' W 075°36'0 0.0
2018-Jul-17 22:59N 39°35' W 075°36'0 0.0
2018-Jul-17 22:29N 39°35' W 075°36'0 0.0
2018-Jul-17 21:59N 39°35' W 075°36'0 0.0
2018-Jul-17 21:30N 39°35' W 075°36'0 0.0
2018-Jul-17 21:00N 39°35' W 075°36'0 0.0
2018-Jul-17 20:30N 39°35' W 075°36'0 0.0
2018-Jul-17 19:58N 39°35' W 075°36'0 0.0
2018-Jul-17 19:28N 39°35' W 075°36'0 0.0
2018-Jul-17 18:58N 39°35' W 075°36'0 0.0
2018-Jul-17 18:29N 39°35' W 075°36'0 0.0
2018-Jul-17 17:59N 39°35' W 075°36'0 0.0
2018-Jul-17 17:29N 39°35' W 075°36'0 0.0
2018-Jul-17 17:00N 39°35' W 075°36'0 0.0
2018-Jul-17 16:30N 39°35' W 075°36'0 0.0
2018-Jul-17 16:00N 39°35' W 075°36'0 0.0
2018-Jul-17 15:28N 39°35' W 075°36'0 0.0
2018-Jul-17 14:58N 39°35' W 075°36'0 0.0
2018-Jul-17 14:28N 39°35' W 075°36'0 0.0
2018-Jul-17 13:59N 39°35' W 075°36'0 0.0
2018-Jul-17 13:29N 39°35' W 075°36'0 0.0
2018-Jul-17 12:59N 39°35' W 075°36'0 0.0
2018-Jul-17 12:30N 39°35' W 075°36'0 0.0
2018-Jul-17 12:00N 39°35' W 075°36'0 0.0
2018-Jul-17 11:30N 39°35' W 075°36'0 0.0
2018-Jul-17 10:58N 39°35' W 075°36'0 0.0
2018-Jul-17 10:28N 39°35' W 075°36'0 0.0
2018-Jul-17 09:59N 39°35' W 075°36'0 0.0
2018-Jul-17 09:29N 39°35' W 075°36'0 0.0
2018-Jul-17 08:59N 39°35' W 075°36'0 0.0
2018-Jul-17 08:30N 39°35' W 075°36'0 0.2
2018-Jul-17 08:00N 39°35' W 075°35'2 3.3
2018-Jul-17 07:30N 39°34' W 075°34'1 2.9
2018-Jul-17 07:00N 39°33' W 075°33'0 0.2
2018-Jul-17 06:28N 39°33' W 075°33'0 0.0
2018-Jul-17 05:58N 39°33' W 075°33'0 0.0
2018-Jul-17 05:29N 39°33' W 075°33'0 0.0
2018-Jul-17 04:59N 39°33' W 075°33'0 0.0
2018-Jul-17 04:29N 39°33' W 075°33'0 0.0
2018-Jul-17 04:00N 39°33' W 075°33'0 0.0
2018-Jul-17 03:30N 39°33' W 075°33'0 0.4
2018-Jul-17 03:00N 39°33' W 075°33'0 0.3
2018-Jul-17 02:28N 39°33' W 075°33'0 0.1
2018-Jul-17 01:58N 39°33' W 075°33'0 0.0
2018-Jul-17 01:28N 39°33' W 075°33'0 0.0
2018-Jul-17 00:59N 39°33' W 075°33'0 0.0
2018-Jul-17 00:29N 39°33' W 075°33'0 0.0
2018-Jul-16 23:30N 39°33' W 075°33'0 0.0
2018-Jul-16 23:00N 39°33' W 075°33'0 0.0
2018-Jul-16 22:31N 39°33' W 075°33'0 0.0
2018-Jul-16 21:58N 39°33' W 075°33'0 0.3
2018-Jul-16 21:28N 39°33' W 075°33'0 0.1
2018-Jul-16 20:58N 39°33' W 075°33'0 0.4
2018-Jul-16 20:29N 39°33' W 075°33'0 0.0
2018-Jul-16 19:59N 39°33' W 075°33'0 0.1
2018-Jul-16 19:30N 39°33' W 075°33'0 0.1
2018-Jul-16 18:59N 39°33' W 075°33'0 0.0
2018-Jul-16 18:30N 39°33' W 075°33'0 0.0
2018-Jul-16 18:00N 39°33' W 075°33'0 0.0
2018-Jul-16 17:30N 39°33' W 075°33'0 0.0
2018-Jul-16 17:00N 39°33' W 075°33'0 0.0
2018-Jul-16 16:28N 39°33' W 075°33'0 0.0
2018-Jul-16 15:58N 39°33' W 075°33'0 0.2
2018-Jul-16 15:29N 39°33' W 075°33'0 0.4
2018-Jul-16 14:59N 39°33' W 075°33'0 0.2
2018-Jul-16 14:29N 39°33' W 075°33'0 0.1
2018-Jul-16 14:00N 39°33' W 075°33'0 0.0
2018-Jul-16 13:30N 39°33' W 075°33'0 0.0
2018-Jul-16 13:00N 39°33' W 075°33'0 0.0
2018-Jul-16 12:28N 39°33' W 075°33'0 0.0
2018-Jul-16 11:58N 39°33' W 075°33'0 0.0
2018-Jul-16 11:28N 39°33' W 075°33'0 0.0
2018-Jul-16 10:59N 39°33' W 075°33'0 0.0
2018-Jul-16 10:29N 39°33' W 075°33'0 0.0
2018-Jul-16 09:59N 39°33' W 075°33'0 0.0
2018-Jul-16 09:30N 39°33' W 075°33'0 0.0
2018-Jul-16 09:00N 39°33' W 075°33'0 0.2
2018-Jul-16 08:30N 39°33' W 075°33'0 0.4
2018-Jul-16 07:58N 39°33' W 075°33'0 0.2
2018-Jul-16 07:28N 39°33' W 075°33'0 0.1
2018-Jul-16 06:58N 39°33' W 075°33'0 0.0
2018-Jul-16 06:29N 39°33' W 075°33'0 0.0
2018-Jul-16 05:59N 39°33' W 075°33'0 0.0
2018-Jul-16 05:30N 39°33' W 075°33'1 2.4
2018-Jul-16 05:00N 39°34' W 075°33'2 4.6
2018-Jul-16 04:30N 39°36' W 075°34'2 4.0
2018-Jul-16 04:00N 39°38' W 075°34'2 4.3
2018-Jul-16 03:30N 39°40' W 075°32'3 6.1
2018-Jul-16 03:00N 39°43' W 075°31'3 7.0
2018-Jul-16 02:30N 39°46' W 075°29'4 8.1
2018-Jul-16 02:00N 39°48' W 075°25'4 8.7
2018-Jul-16 01:30N 39°51' W 075°20'4 8.6
2018-Jul-16 01:01N 39°51' W 075°15'4 8.4
2018-Jul-16 00:30N 39°53' W 075°09'4 7.5
2018-Jul-16 00:00N 39°57' W 075°08'4 7.2
2018-Jul-15 23:30N 39°59' W 075°04'0 0.1
2018-Jul-15 23:00N 39°59' W 075°04'0 0.0
2018-Jul-15 22:30N 39°59' W 075°04'0 0.0
2018-Jul-15 21:58N 39°59' W 075°04'0 0.0
2018-Jul-15 21:28N 39°59' W 075°04'0 0.0
2018-Jul-15 20:58N 39°59' W 075°04'0 0.0
2018-Jul-15 20:29N 39°59' W 075°04'0 0.0
2018-Jul-15 19:59N 39°59' W 075°04'0 0.0
2018-Jul-15 19:29N 39°59' W 075°04'0 0.0
2018-Jul-15 19:00N 39°59' W 075°04'0 0.0
2018-Jul-15 18:30N 39°59' W 075°04'0 0.0
2018-Jul-15 18:00N 39°59' W 075°04'0 0.0
2018-Jul-15 17:28N 39°59' W 075°04'0 0.0
2018-Jul-15 16:55N 39°59' W 075°04'0 0.0
2018-Jul-15 16:28N 39°59' W 075°04'0 0.0
2018-Jul-15 15:59N 39°59' W 075°04'0 0.0
2018-Jul-15 15:29N 39°59' W 075°04'0 0.0
2018-Jul-15 14:59N 39°59' W 075°04'0 0.0
2018-Jul-15 14:24N 39°59' W 075°04'0 0.0
2018-Jul-15 14:00N 39°59' W 075°04'0 0.0
2018-Jul-15 13:30N 39°59' W 075°04'0 0.0
2018-Jul-15 12:58N 39°59' W 075°04'0 0.0
2018-Jul-15 12:28N 39°59' W 075°04'0 0.0
2018-Jul-15 11:58N 39°59' W 075°04'0 0.0
2018-Jul-15 11:29N 39°59' W 075°04'0 0.0
2018-Jul-15 10:59N 39°59' W 075°04'0 0.0
2018-Jul-15 10:29N 39°59' W 075°04'0 0.0
2018-Jul-15 10:00N 39°59' W 075°04'0 0.0
2018-Jul-15 09:31N 39°59' W 075°04'2 3.5
2018-Jul-15 09:01N 39°58' W 075°07'3 6.0
2018-Jul-15 08:30N 39°55' W 075°08'3 5.9
2018-Jul-15 08:01N 39°53' W 075°10'4 7.6
2018-Jul-15 07:31N 39°51' W 075°14'1 2.6
2018-Jul-15 07:00N 39°51' W 075°16'1 1.4
2018-Jul-15 06:30N 39°51' W 075°15'4 7.2
2018-Jul-15 06:00N 39°53' W 075°12'0 0.2
2018-Jul-15 05:30N 39°54' W 075°12'0 0.0
2018-Jul-15 05:00N 39°54' W 075°12'0 0.0
2018-Jul-15 04:30N 39°54' W 075°12'0 0.0
2018-Jul-15 03:58N 39°54' W 075°12'0 0.0
2018-Jul-15 03:28N 39°54' W 075°12'0 0.0
2018-Jul-15 02:59N 39°54' W 075°12'0 0.0
2018-Jul-15 02:29N 39°54' W 075°12'0 0.0
2018-Jul-15 01:56N 39°54' W 075°12'0 0.0
2018-Jul-15 01:30N 39°54' W 075°12'0 0.0
2018-Jul-15 01:00N 39°54' W 075°12'0 0.0
2018-Jul-15 00:30N 39°54' W 075°12'0 0.0
2018-Jul-14 23:58N 39°54' W 075°12'0 0.0
2018-Jul-14 23:28N 39°54' W 075°12'0 0.0
2018-Jul-14 22:58N 39°54' W 075°12'0 0.0
2018-Jul-14 22:29N 39°54' W 075°12'0 0.0
2018-Jul-14 21:59N 39°54' W 075°12'0 0.0
2018-Jul-14 21:29N 39°54' W 075°12'0 0.0
2018-Jul-14 20:57N 39°54' W 075°12'0 0.0
2018-Jul-14 20:30N 39°54' W 075°12'0 0.0
2018-Jul-14 20:00N 39°54' W 075°12'0 0.0
2018-Jul-14 19:28N 39°54' W 075°12'0 0.0
2018-Jul-14 19:00N 39°54' W 075°12'2 3.7
2018-Jul-14 18:30N 39°52' W 075°13'0 0.0
2018-Jul-14 17:58N 39°52' W 075°13'0 0.0
2018-Jul-14 17:28N 39°52' W 075°13'0 0.0
2018-Jul-14 16:59N 39°52' W 075°13'0 0.0
2018-Jul-14 16:29N 39°52' W 075°13'0 0.0
2018-Jul-14 16:00N 39°52' W 075°13'3 5.3
2018-Jul-14 15:30N 39°51' W 075°16'0 0.3
2018-Jul-14 15:00N 39°51' W 075°16'4 4.2
2018-Jul-14 13:59N 39°54' W 075°12'0 0.0
2018-Jul-14 13:29N 39°54' W 075°12'0 0.0
2018-Jul-14 12:59N 39°54' W 075°12'0 0.0
2018-Jul-14 12:30N 39°54' W 075°12'0 0.0
2018-Jul-14 12:00N 39°54' W 075°12'0 0.0
2018-Jul-14 11:27N 39°54' W 075°12'0 0.0
2018-Jul-14 10:58N 39°54' W 075°12'0 0.0
2018-Jul-14 10:28N 39°54' W 075°12'0 0.0
2018-Jul-14 09:58N 39°54' W 075°12'0 0.0
2018-Jul-14 09:29N 39°54' W 075°12'0 0.1
2018-Jul-14 08:59N 39°53' W 075°12'0 0.1
2018-Jul-14 08:29N 39°53' W 075°12'0 0.3
2018-Jul-14 07:59N 39°54' W 075°12'0 0.0
2018-Jul-14 07:30N 39°54' W 075°12'0 0.0
2018-Jul-14 07:00N 39°54' W 075°12'0 0.0
2018-Jul-14 06:25N 39°54' W 075°12'0 0.0
2018-Jul-14 05:55N 39°54' W 075°12'0 0.0
2018-Jul-14 05:28N 39°54' W 075°12'0 0.0
2018-Jul-14 04:59N 39°54' W 075°12'0 0.0
2018-Jul-14 04:29N 39°54' W 075°12'0 0.0
2018-Jul-14 03:59N 39°54' W 075°12'0 0.0
2018-Jul-14 03:30N 39°54' W 075°12'0 0.0
2018-Jul-14 03:00N 39°54' W 075°12'0 0.0
2018-Jul-14 02:30N 39°54' W 075°12'0 0.0
2018-Jul-14 01:58N 39°54' W 075°12'0 0.0
2018-Jul-14 01:28N 39°54' W 075°12'0 0.0
2018-Jul-14 01:00N 39°54' W 075°12'0 0.5
2018-Jul-14 00:30N 39°54' W 075°12'0 0.2
2018-Jul-14 00:00N 39°54' W 075°12'0 0.0
2018-Jul-13 23:30N 39°54' W 075°12'0 0.0
2018-Jul-13 23:00N 39°54' W 075°12'0 0.0
2018-Jul-13 22:30N 39°54' W 075°12'0 0.0
2018-Jul-13 22:00N 39°54' W 075°12'0 0.0
2018-Jul-13 21:30N 39°54' W 075°12'0 0.0
2018-Jul-13 21:01N 39°54' W 075°12'0 0.5
2018-Jul-13 20:30N 39°54' W 075°12'3 5.9
2018-Jul-13 20:01N 39°51' W 075°14'2 3.9
2018-Jul-13 19:30N 39°53' W 075°12'1 2.0
2018-Jul-13 19:01N 39°54' W 075°12'0 0.0
2018-Jul-13 18:30N 39°54' W 075°12'1 2.3
2018-Jul-13 18:01N 39°53' W 075°12'4 7.1
2018-Jul-13 17:31N 39°51' W 075°16'0 0.0
2018-Jul-13 17:00N 39°51' W 075°16'1 1.7
2018-Jul-13 16:30N 39°51' W 075°17'4 7.9
2018-Jul-13 16:00N 39°50' W 075°22'4 8.7
2018-Jul-13 15:30N 39°47' W 075°27'5 9.6
2018-Jul-13 15:00N 39°43' W 075°30'5 9.5
2018-Jul-13 14:30N 39°39' W 075°33'7 6.6
2018-Jul-13 13:30N 39°33' W 075°37'4 8.6
2018-Jul-13 13:00N 39°33' W 075°43'5 8.9
2018-Jul-13 12:30N 39°32' W 075°49'4 8.3
2018-Jul-13 12:00N 39°31' W 075°54'4 8.8
2018-Jul-13 11:30N 39°28' W 075°58'4 8.7
2018-Jul-13 11:00N 39°25' W 076°02'5 8.6
2018-Jul-13 10:28N 39°22' W 076°07'4 8.9
2018-Jul-13 10:00N 39°20' W 076°12'4 8.2
2018-Jul-13 09:30N 39°16' W 076°14'4 8.2
2018-Jul-13 09:00N 39°12' W 076°15'4 8.1
2018-Jul-13 08:30N 39°09' W 076°19'3 6.5
2018-Jul-13 08:00N 39°10' W 076°23'4 7.2
2018-Jul-13 07:30N 39°11' W 076°27'4 7.1
2018-Jul-13 07:00N 39°13' W 076°31'3 5.2
2018-Jul-13 06:30N 39°14' W 076°34'0 0.1
2018-Jul-13 06:00N 39°14' W 076°34'0 0.5
2018-Jul-13 05:30N 39°15' W 076°34'0 0.0
2018-Jul-13 04:59N 39°15' W 076°34'0 0.0
2018-Jul-13 04:26N 39°15' W 076°34'0 0.0
2018-Jul-13 04:00N 39°15' W 076°34'0 0.0
2018-Jul-13 03:30N 39°15' W 076°34'0 0.0
2018-Jul-13 03:00N 39°15' W 076°34'0 0.0
2018-Jul-13 02:30N 39°15' W 076°34'0 0.0
2018-Jul-13 02:01N 39°15' W 076°34'0 0.0
2018-Jul-13 01:28N 39°15' W 076°34'0 0.0
2018-Jul-13 00:58N 39°15' W 076°34'0 0.0
2018-Jul-13 00:29N 39°15' W 076°34'0 0.0
2018-Jul-13 00:00N 39°15' W 076°34'0 0.0
2018-Jul-12 23:30N 39°15' W 076°34'0 0.0
2018-Jul-12 23:01N 39°15' W 076°34'0 0.0
2018-Jul-12 22:31N 39°15' W 076°34'0 0.0
2018-Jul-12 22:01N 39°15' W 076°34'0 0.0
2018-Jul-12 21:30N 39°15' W 076°34'0 0.0
2018-Jul-12 21:01N 39°15' W 076°34'0 0.0
2018-Jul-12 20:31N 39°15' W 076°34'0 0.0
2018-Jul-12 20:00N 39°15' W 076°34'0 0.0
2018-Jul-12 19:30N 39°15' W 076°34'0 0.0
2018-Jul-12 19:00N 39°15' W 076°34'0 0.0
2018-Jul-12 18:31N 39°15' W 076°34'0 0.0
2018-Jul-12 18:00N 39°15' W 076°34'0 0.0
2018-Jul-12 17:30N 39°15' W 076°34'0 0.0
2018-Jul-12 17:01N 39°15' W 076°34'0 0.0
2018-Jul-12 16:31N 39°15' W 076°34'0 0.0
2018-Jul-12 16:01N 39°15' W 076°34'0 0.0
2018-Jul-12 15:31N 39°15' W 076°34'0 0.0
2018-Jul-12 15:00N 39°15' W 076°34'0 0.5
2018-Jul-12 14:30N 39°14' W 076°34'0 0.2
2018-Jul-12 14:00N 39°15' W 076°34'3 6.1
2018-Jul-12 13:31N 39°12' W 076°31'6 9.2
2018-Jul-12 12:51N 39°10' W 076°24'4 7.9
2018-Jul-12 12:18N 39°10' W 076°18'14 7.9
2018-Jul-12 10:35N 39°21' W 076°09'1 7.5
2018-Jul-12 10:31N 39°22' W 076°08'4 7.8
2018-Jul-12 10:00N 39°24' W 076°04'4 8.2
2018-Jul-12 09:30N 39°26' W 076°00'4 8.8
2018-Jul-12 09:01N 39°29' W 075°56'4 9.0
2018-Jul-12 08:31N 39°32' W 075°51'4 8.6
2018-Jul-12 08:00N 39°32' W 075°46'5 9.9
2018-Jul-12 07:31N 39°33' W 075°39'510.0
2018-Jul-12 07:01N 39°34' W 075°33'5 9.5
2018-Jul-12 06:30N 39°39' W 075°33'510.7
2018-Jul-12 06:00N 39°44' W 075°30'5 9.7
2018-Jul-12 05:31N 39°47' W 075°27'4 8.9
2018-Jul-12 05:01N 39°50' W 075°22'4 7.7
2018-Jul-12 04:30N 39°51' W 075°17'4 7.6
2018-Jul-12 04:01N 39°52' W 075°12'3 6.9
2018-Jul-12 03:30N 39°54' W 075°08'4 7.1
2018-Jul-12 03:00N 39°57' W 075°08'3 6.3
2018-Jul-12 02:31N 39°59' W 075°04'0 0.6
2018-Jul-12 02:00N 39°59' W 075°05'0 0.0
2018-Jul-12 01:30N 39°59' W 075°05'0 0.0
2018-Jul-12 00:58N 39°59' W 075°05'0 0.0
2018-Jul-12 00:28N 39°59' W 075°05'0 0.0
2018-Jul-11 23:58N 39°59' W 075°05'0 0.0
2018-Jul-11 23:29N 39°59' W 075°05'0 0.0
2018-Jul-11 22:59N 39°59' W 075°05'0 0.0
2018-Jul-11 22:29N 39°59' W 075°05'0 0.0
2018-Jul-11 22:00N 39°59' W 075°05'0 0.0
2018-Jul-11 21:30N 39°59' W 075°05'0 0.0
2018-Jul-11 21:00N 39°59' W 075°05'0 0.0
2018-Jul-11 20:28N 39°59' W 075°05'0 0.0
2018-Jul-11 19:58N 39°59' W 075°05'0 0.0
2018-Jul-11 19:30N 39°59' W 075°05'0 0.0
2018-Jul-11 19:01N 39°59' W 075°05'0 0.8
2018-Jul-11 18:30N 39°59' W 075°04'3 5.2
2018-Jul-11 18:00N 39°58' W 075°08'3 6.4
2018-Jul-11 17:28N 39°54' W 075°08'3 6.8
2018-Jul-11 17:00N 39°53' W 075°11'1 2.1
2018-Jul-11 16:30N 39°52' W 075°13'0 0.0
2018-Jul-11 15:58N 39°52' W 075°13'0 0.0
2018-Jul-11 15:28N 39°52' W 075°13'0 0.0
2018-Jul-11 14:56N 39°52' W 075°13'0 0.0
2018-Jul-11 14:29N 39°52' W 075°13'0 0.0
2018-Jul-11 13:59N 39°52' W 075°13'0 0.0
2018-Jul-11 13:30N 39°52' W 075°13'0 0.1
2018-Jul-11 13:00N 39°52' W 075°13'0 0.0
2018-Jul-11 12:30N 39°52' W 075°13'0 0.3
2018-Jul-11 11:58N 39°52' W 075°13'0 0.1
2018-Jul-11 11:28N 39°52' W 075°13'0 0.0
2018-Jul-11 10:58N 39°52' W 075°13'0 0.0
2018-Jul-11 10:29N 39°52' W 075°13'0 0.0
2018-Jul-11 09:59N 39°52' W 075°13'0 0.0
2018-Jul-11 09:29N 39°52' W 075°13'0 0.1
2018-Jul-11 09:00N 39°52' W 075°13'0 0.0
2018-Jul-11 08:30N 39°52' W 075°13'0 0.0
2018-Jul-11 08:00N 39°52' W 075°13'0 0.0
2018-Jul-11 07:28N 39°52' W 075°13'0 0.0
2018-Jul-11 06:58N 39°52' W 075°13'2 3.7
2018-Jul-11 06:30N 39°53' W 075°12'0 0.1
2018-Jul-11 06:00N 39°54' W 075°12'0 0.0
2018-Jul-11 05:30N 39°54' W 075°12'1 1.3
2018-Jul-11 05:00N 39°53' W 075°12'1 1.1
2018-Jul-11 04:28N 39°54' W 075°12'  
Track history (hours):
 
Tides and Currents Weather Stations Pressure Air Temp Water Temp Dewpoint Dewpoint Depression Visibility Wind Speed Wind Dir Waves Ship Positions

Choptank

Owner: Vane Line Bunkering, Philadelphia, PA. More information available from US FCC via Universal Licensing System and Coast Guard Vessel Documentation Center.

Last reported at 2018-Jul-21 04:21 UTC. Time now 2018-Jul-21 07:57 UTC.
Position N 36°53' W 076°20'.

Length 33 m; draft 4.1 m.

Type: Towing. MMSI: 367147860.

Date/timePositionNaut miles runAvg speedWind from/ knotsBaromVisibWave heightAir tempDewpointWater temp
2018-Jul-21 04:21N 36°53' W 076°20'3 9.3
2018-Jul-21 04:00N 36°51' W 076°18'2 0.4
2018-Jul-21 00:11N 36°51' W 076°16'0 0.4
2018-Jul-20 23:50N 36°50' W 076°16'1 2.1
2018-Jul-20 23:29N 36°50' W 076°17'3 5.6
2018-Jul-20 23:00N 36°52' W 076°20'55 5.3
2018-Jul-20 12:38N 37°47' W 076°12'61 8.3
2018-Jul-20 05:17N 38°47' W 076°27'2 7.8
2018-Jul-20 05:00N 38°49' W 076°27'4 7.8
2018-Jul-20 04:30N 38°52' W 076°25'4 7.8
2018-Jul-20 04:01N 38°56' W 076°23'5 7.6
2018-Jul-20 03:22N 39°01' W 076°22'6 7.8
2018-Jul-20 02:33N 39°06' W 076°18'1 8.2
2018-Jul-20 02:29N 39°07' W 076°18'16 8.2
2018-Jul-20 00:34N 39°21' W 076°10'2 9.6
2018-Jul-20 00:24N 39°22' W 076°08'4 9.6
2018-Jul-19 23:59N 39°24' W 076°04'5 9.1
2018-Jul-19 23:28N 39°27' W 075°59'510.0
2018-Jul-19 23:00N 39°30' W 075°55'5 9.9
2018-Jul-19 22:30N 39°32' W 075°49'510.0
2018-Jul-19 22:00N 39°33' W 075°42'5 9.4
2018-Jul-19 21:30N 39°33' W 075°36'3 5.8
2018-Jul-19 21:00N 39°35' W 075°34'2 3.5
2018-Jul-19 20:30N 39°37' W 075°35'3 6.7
2018-Jul-19 20:00N 39°40' W 075°32'4 7.4
2018-Jul-19 19:30N 39°43' W 075°30'4 7.7
2018-Jul-19 19:00N 39°46' W 075°28'4 8.3
2018-Jul-19 18:30N 39°49' W 075°24'5 9.4
2018-Jul-19 17:58N 39°51' W 075°18'4 9.7
2018-Jul-19 17:30N 39°52' W 075°12'1 1.1
2018-Jul-19 16:25N 39°54' W 075°12'0 0.0
2018-Jul-19 16:00N 39°54' W 075°12'0 0.0
2018-Jul-19 15:30N 39°54' W 075°12'0 0.0
2018-Jul-19 15:00N 39°54' W 075°12'0 0.0
2018-Jul-19 14:00N 39°54' W 075°12'0 0.0
2018-Jul-19 13:30N 39°54' W 075°12'0 0.0
2018-Jul-19 13:00N 39°54' W 075°12'0 0.0
2018-Jul-19 12:30N 39°54' W 075°12'0 0.0
2018-Jul-19 12:00N 39°54' W 075°12'0 0.0
2018-Jul-19 11:30N 39°54' W 075°12'0 0.0
2018-Jul-19 11:00N 39°54' W 075°12'0 0.0
2018-Jul-19 10:31N 39°54' W 075°12'0 0.0
2018-Jul-19 10:00N 39°54' W 075°12'0 0.0
2018-Jul-19 09:29N 39°54' W 075°12'0 0.2
2018-Jul-19 09:00N 39°54' W 075°12'1 2.2
2018-Jul-19 08:30N 39°52' W 075°12'1 1.8
2018-Jul-19 08:01N 39°52' W 075°13'2 4.7
2018-Jul-19 07:30N 39°51' W 075°16'2 4.8
2018-Jul-19 07:00N 39°52' W 075°13'2 3.9
2018-Jul-19 06:30N 39°53' W 075°12'0 0.0
2018-Jul-19 06:00N 39°53' W 075°12'0 0.0
2018-Jul-19 05:30N 39°53' W 075°12'0 0.0
2018-Jul-19 05:01N 39°53' W 075°12'0 0.0
2018-Jul-19 04:30N 39°53' W 075°12'0 0.0
2018-Jul-19 04:01N 39°53' W 075°12'0 0.0
2018-Jul-19 03:31N 39°53' W 075°12'0 0.1
2018-Jul-19 03:01N 39°54' W 075°12'0 0.0
2018-Jul-19 02:31N 39°54' W 075°12'0 0.0
2018-Jul-19 02:01N 39°54' W 075°12'0 0.0
2018-Jul-19 01:31N 39°54' W 075°12'0 0.0
2018-Jul-19 01:00N 39°54' W 075°12'0 0.0
2018-Jul-19 00:31N 39°54' W 075°12'0 0.0
2018-Jul-19 00:00N 39°54' W 075°12'0 0.0
2018-Jul-18 23:31N 39°54' W 075°12'0 0.0
2018-Jul-18 23:00N 39°54' W 075°12'0 0.0
2018-Jul-18 22:30N 39°54' W 075°12'0 0.0
2018-Jul-18 22:00N 39°54' W 075°12'0 0.0
2018-Jul-18 21:30N 39°54' W 075°12'1 1.2
2018-Jul-18 21:00N 39°54' W 075°12'0 0.1
2018-Jul-18 20:31N 39°54' W 075°12'1 1.1
2018-Jul-18 20:00N 39°53' W 075°12'3 5.4
2018-Jul-18 19:30N 39°54' W 075°08'0 0.3
2018-Jul-18 19:00N 39°53' W 075°08'3 6.4
2018-Jul-18 18:30N 39°54' W 075°12'3 6.7
2018-Jul-18 18:00N 39°51' W 075°15'1 1.4
2018-Jul-18 17:31N 39°51' W 075°16'3 5.1
2018-Jul-18 17:00N 39°51' W 075°19'3 5.3
2018-Jul-18 16:30N 39°50' W 075°22'3 5.5
2018-Jul-18 16:00N 39°48' W 075°25'3 5.3
2018-Jul-18 15:29N 39°46' W 075°28'3 5.4
2018-Jul-18 15:00N 39°44' W 075°30'2 5.0
2018-Jul-18 14:30N 39°42' W 075°31'4 4.5
2018-Jul-18 13:31N 39°38' W 075°34'2 4.6
2018-Jul-18 13:00N 39°36' W 075°34'1 2.8
2018-Jul-18 12:30N 39°34' W 075°34'1 2.8
2018-Jul-18 11:59N 39°35' W 075°36'0 0.0
2018-Jul-18 11:29N 39°35' W 075°36'0 0.0
2018-Jul-18 10:30N 39°35' W 075°36'0 0.0
2018-Jul-18 10:00N 39°35' W 075°36'0 0.0
2018-Jul-18 09:28N 39°35' W 075°36'0 0.0
2018-Jul-18 08:58N 39°35' W 075°36'0 0.0
2018-Jul-18 08:28N 39°35' W 075°36'0 0.0
2018-Jul-18 07:59N 39°35' W 075°36'0 0.0
2018-Jul-18 07:29N 39°35' W 075°36'0 0.0
2018-Jul-18 06:59N 39°35' W 075°36'0 0.0
2018-Jul-18 06:30N 39°35' W 075°36'0 0.0
2018-Jul-18 06:00N 39°35' W 075°36'0 0.0
2018-Jul-18 05:30N 39°35' W 075°36'0 0.0
2018-Jul-18 04:58N 39°35' W 075°36'0 0.0
2018-Jul-18 04:28N 39°35' W 075°36'0 0.0
2018-Jul-18 03:58N 39°35' W 075°36'0 0.0
2018-Jul-18 03:29N 39°35' W 075°36'0 0.0
2018-Jul-18 02:59N 39°35' W 075°36'0 0.0
2018-Jul-18 02:29N 39°35' W 075°36'0 0.0
2018-Jul-18 02:00N 39°35' W 075°36'0 0.0
2018-Jul-18 01:30N 39°35' W 075°36'0 0.0
2018-Jul-18 01:00N 39°35' W 075°36'0 0.0
2018-Jul-18 00:28N 39°35' W 075°36'0 0.0
2018-Jul-17 23:58N 39°35' W 075°36'0 0.0
2018-Jul-17 23:28N 39°35' W 075°36'0 0.0
2018-Jul-17 22:59N 39°35' W 075°36'0 0.0
2018-Jul-17 22:29N 39°35' W 075°36'0 0.0
2018-Jul-17 21:59N 39°35' W 075°36'0 0.0
2018-Jul-17 21:30N 39°35' W 075°36'0 0.0
2018-Jul-17 21:00N 39°35' W 075°36'0 0.0
2018-Jul-17 20:30N 39°35' W 075°36'0 0.0
2018-Jul-17 19:58N 39°35' W 075°36'0 0.0
2018-Jul-17 19:28N 39°35' W 075°36'0 0.0
2018-Jul-17 18:58N 39°35' W 075°36'0 0.0
2018-Jul-17 18:29N 39°35' W 075°36'0 0.0
2018-Jul-17 17:59N 39°35' W 075°36'0 0.0
2018-Jul-17 17:29N 39°35' W 075°36'0 0.0
2018-Jul-17 17:00N 39°35' W 075°36'0 0.0
2018-Jul-17 16:30N 39°35' W 075°36'0 0.0
2018-Jul-17 16:00N 39°35' W 075°36'0 0.0
2018-Jul-17 15:28N 39°35' W 075°36'0 0.0
2018-Jul-17 14:58N 39°35' W 075°36'0 0.0
2018-Jul-17 14:28N 39°35' W 075°36'0 0.0
2018-Jul-17 13:59N 39°35' W 075°36'0 0.0
2018-Jul-17 13:29N 39°35' W 075°36'0 0.0
2018-Jul-17 12:59N 39°35' W 075°36'0 0.0
2018-Jul-17 12:30N 39°35' W 075°36'0 0.0
2018-Jul-17 12:00N 39°35' W 075°36'0 0.0
2018-Jul-17 11:30N 39°35' W 075°36'0 0.0
2018-Jul-17 10:58N 39°35' W 075°36'0 0.0
2018-Jul-17 10:28N 39°35' W 075°36'0 0.0
2018-Jul-17 09:59N 39°35' W 075°36'0 0.0
2018-Jul-17 09:29N 39°35' W 075°36'0 0.0
2018-Jul-17 08:59N 39°35' W 075°36'0 0.0
2018-Jul-17 08:30N 39°35' W 075°36'0 0.2
2018-Jul-17 08:00N 39°35' W 075°35'2 3.3
2018-Jul-17 07:30N 39°34' W 075°34'1 2.9
2018-Jul-17 07:00N 39°33' W 075°33'0 0.2
2018-Jul-17 06:28N 39°33' W 075°33'0 0.0
2018-Jul-17 05:58N 39°33' W 075°33'0 0.0
2018-Jul-17 05:29N 39°33' W 075°33'0 0.0
2018-Jul-17 04:59N 39°33' W 075°33'0 0.0
2018-Jul-17 04:29N 39°33' W 075°33'0 0.0
2018-Jul-17 04:00N 39°33' W 075°33'0 0.0
2018-Jul-17 03:30N 39°33' W 075°33'0 0.4
2018-Jul-17 03:00N 39°33' W 075°33'0 0.3
2018-Jul-17 02:28N 39°33' W 075°33'0 0.1
2018-Jul-17 01:58N 39°33' W 075°33'0 0.0
2018-Jul-17 01:28N 39°33' W 075°33'0 0.0
2018-Jul-17 00:59N 39°33' W 075°33'0 0.0
2018-Jul-17 00:29N 39°33' W 075°33'0 0.0
2018-Jul-16 23:30N 39°33' W 075°33'0 0.0
2018-Jul-16 23:00N 39°33' W 075°33'0 0.0
2018-Jul-16 22:31N 39°33' W 075°33'0 0.0
2018-Jul-16 21:58N 39°33' W 075°33'0 0.3
2018-Jul-16 21:28N 39°33' W 075°33'0 0.1
2018-Jul-16 20:58N 39°33' W 075°33'0 0.4
2018-Jul-16 20:29N 39°33' W 075°33'0 0.0
2018-Jul-16 19:59N 39°33' W 075°33'0 0.1
2018-Jul-16 19:30N 39°33' W 075°33'0 0.1
2018-Jul-16 18:59N 39°33' W 075°33'0 0.0
2018-Jul-16 18:30N 39°33' W 075°33'0 0.0
2018-Jul-16 18:00N 39°33' W 075°33'0 0.0
2018-Jul-16 17:30N 39°33' W 075°33'0 0.0
2018-Jul-16 17:00N 39°33' W 075°33'0 0.0
2018-Jul-16 16:28N 39°33' W 075°33'0 0.0
2018-Jul-16 15:58N 39°33' W 075°33'0 0.2
2018-Jul-16 15:29N 39°33' W 075°33'0 0.4
2018-Jul-16 14:59N 39°33' W 075°33'0 0.2
2018-Jul-16 14:29N 39°33' W 075°33'0 0.1
2018-Jul-16 14:00N 39°33' W 075°33'0 0.0
2018-Jul-16 13:30N 39°33' W 075°33'0 0.0
2018-Jul-16 13:00N 39°33' W 075°33'0 0.0
2018-Jul-16 12:28N 39°33' W 075°33'0 0.0
2018-Jul-16 11:58N 39°33' W 075°33'0 0.0
2018-Jul-16 11:28N 39°33' W 075°33'0 0.0
2018-Jul-16 10:59N 39°33' W 075°33'0 0.0
2018-Jul-16 10:29N 39°33' W 075°33'0 0.0
2018-Jul-16 09:59N 39°33' W 075°33'0 0.0
2018-Jul-16 09:30N 39°33' W 075°33'0 0.0
2018-Jul-16 09:00N 39°33' W 075°33'0 0.2
2018-Jul-16 08:30N 39°33' W 075°33'0 0.4
2018-Jul-16 07:58N 39°33' W 075°33'0 0.2
2018-Jul-16 07:28N 39°33' W 075°33'0 0.1
2018-Jul-16 06:58N 39°33' W 075°33'0 0.0
2018-Jul-16 06:29N 39°33' W 075°33'0 0.0
2018-Jul-16 05:59N 39°33' W 075°33'0 0.0
2018-Jul-16 05:30N 39°33' W 075°33'1 2.4
2018-Jul-16 05:00N 39°34' W 075°33'2 4.6
2018-Jul-16 04:30N 39°36' W 075°34'2 4.0
2018-Jul-16 04:00N 39°38' W 075°34'2 4.3
2018-Jul-16 03:30N 39°40' W 075°32'3 6.1
2018-Jul-16 03:00N 39°43' W 075°31'3 7.0
2018-Jul-16 02:30N 39°46' W 075°29'4 8.1
2018-Jul-16 02:00N 39°48' W 075°25'4 8.7
2018-Jul-16 01:30N 39°51' W 075°20'4 8.6
2018-Jul-16 01:01N 39°51' W 075°15'4 8.4
2018-Jul-16 00:30N 39°53' W 075°09'4 7.5
2018-Jul-16 00:00N 39°57' W 075°08'4 7.2
2018-Jul-15 23:30N 39°59' W 075°04'0 0.1
2018-Jul-15 23:00N 39°59' W 075°04'0 0.0
2018-Jul-15 22:30N 39°59' W 075°04'0 0.0
2018-Jul-15 21:58N 39°59' W 075°04'0 0.0
2018-Jul-15 21:28N 39°59' W 075°04'0 0.0
2018-Jul-15 20:58N 39°59' W 075°04'0 0.0
2018-Jul-15 20:29N 39°59' W 075°04'0 0.0
2018-Jul-15 19:59N 39°59' W 075°04'0 0.0
2018-Jul-15 19:29N 39°59' W 075°04'0 0.0
2018-Jul-15 19:00N 39°59' W 075°04'0 0.0
2018-Jul-15 18:30N 39°59' W 075°04'0 0.0
2018-Jul-15 18:00N 39°59' W 075°04'0 0.0
2018-Jul-15 17:28N 39°59' W 075°04'0 0.0
2018-Jul-15 16:55N 39°59' W 075°04'0 0.0
2018-Jul-15 16:28N 39°59' W 075°04'0 0.0
2018-Jul-15 15:59N 39°59' W 075°04'0 0.0
2018-Jul-15 15:29N 39°59' W 075°04'0 0.0
2018-Jul-15 14:59N 39°59' W 075°04'0 0.0
2018-Jul-15 14:24N 39°59' W 075°04'0 0.0
2018-Jul-15 14:00N 39°59' W 075°04'0 0.0
2018-Jul-15 13:30N 39°59' W 075°04'0 0.0
2018-Jul-15 12:58N 39°59' W 075°04'0 0.0
2018-Jul-15 12:28N 39°59' W 075°04'0 0.0
2018-Jul-15 11:58N 39°59' W 075°04'0 0.0
2018-Jul-15 11:29N 39°59' W 075°04'0 0.0
2018-Jul-15 10:59N 39°59' W 075°04'0 0.0
2018-Jul-15 10:29N 39°59' W 075°04'0 0.0
2018-Jul-15 10:00N 39°59' W 075°04'0 0.0
2018-Jul-15 09:31N 39°59' W 075°04'2 3.5
2018-Jul-15 09:01N 39°58' W 075°07'3 6.0
2018-Jul-15 08:30N 39°55' W 075°08'3 5.9
2018-Jul-15 08:01N 39°53' W 075°10'4 7.6
2018-Jul-15 07:31N 39°51' W 075°14'1 2.6
2018-Jul-15 07:00N 39°51' W 075°16'1 1.4
2018-Jul-15 06:30N 39°51' W 075°15'4 7.2
2018-Jul-15 06:00N 39°53' W 075°12'0 0.2
2018-Jul-15 05:30N 39°54' W 075°12'0 0.0
2018-Jul-15 05:00N 39°54' W 075°12'0 0.0
2018-Jul-15 04:30N 39°54' W 075°12'0 0.0
2018-Jul-15 03:58N 39°54' W 075°12'0 0.0
2018-Jul-15 03:28N 39°54' W 075°12'0 0.0
2018-Jul-15 02:59N 39°54' W 075°12'0 0.0
2018-Jul-15 02:29N 39°54' W 075°12'0 0.0
2018-Jul-15 01:56N 39°54' W 075°12'0 0.0
2018-Jul-15 01:30N 39°54' W 075°12'0 0.0
2018-Jul-15 01:00N 39°54' W 075°12'0 0.0
2018-Jul-15 00:30N 39°54' W 075°12'0 0.0
2018-Jul-14 23:58N 39°54' W 075°12'0 0.0
2018-Jul-14 23:28N 39°54' W 075°12'0 0.0
2018-Jul-14 22:58N 39°54' W 075°12'0 0.0
2018-Jul-14 22:29N 39°54' W 075°12'0 0.0
2018-Jul-14 21:59N 39°54' W 075°12'0 0.0
2018-Jul-14 21:29N 39°54' W 075°12'0 0.0
2018-Jul-14 20:57N 39°54' W 075°12'0 0.0
2018-Jul-14 20:30N 39°54' W 075°12'0 0.0
2018-Jul-14 20:00N 39°54' W 075°12'0 0.0
2018-Jul-14 19:28N 39°54' W 075°12'0 0.0
2018-Jul-14 19:00N 39°54' W 075°12'2 3.7
2018-Jul-14 18:30N 39°52' W 075°13'0 0.0
2018-Jul-14 17:58N 39°52' W 075°13'0 0.0
2018-Jul-14 17:28N 39°52' W 075°13'0 0.0
2018-Jul-14 16:59N 39°52' W 075°13'0 0.0
2018-Jul-14 16:29N 39°52' W 075°13'0 0.0
2018-Jul-14 16:00N 39°52' W 075°13'3 5.3
2018-Jul-14 15:30N 39°51' W 075°16'0 0.3
2018-Jul-14 15:00N 39°51' W 075°16'4 4.2
2018-Jul-14 13:59N 39°54' W 075°12'0 0.0
2018-Jul-14 13:29N 39°54' W 075°12'0 0.0
2018-Jul-14 12:59N 39°54' W 075°12'0 0.0
2018-Jul-14 12:30N 39°54' W 075°12'0 0.0
2018-Jul-14 12:00N 39°54' W 075°12'0 0.0
2018-Jul-14 11:27N 39°54' W 075°12'0 0.0
2018-Jul-14 10:58N 39°54' W 075°12'0 0.0
2018-Jul-14 10:28N 39°54' W 075°12'0 0.0
2018-Jul-14 09:58N 39°54' W 075°12'0 0.0
2018-Jul-14 09:29N 39°54' W 075°12'0 0.1
2018-Jul-14 08:59N 39°53' W 075°12'0 0.1
2018-Jul-14 08:29N 39°53' W 075°12'0 0.3
2018-Jul-14 07:59N 39°54' W 075°12'0 0.0
2018-Jul-14 07:30N 39°54' W 075°12'0 0.0
2018-Jul-14 07:00N 39°54' W 075°12'0 0.0
2018-Jul-14 06:25N 39°54' W 075°12'0 0.0
2018-Jul-14 05:55N 39°54' W 075°12'0 0.0
2018-Jul-14 05:28N 39°54' W 075°12'0 0.0
2018-Jul-14 04:59N 39°54' W 075°12'0 0.0
2018-Jul-14 04:29N 39°54' W 075°12'0 0.0
2018-Jul-14 03:59N 39°54' W 075°12'0 0.0
2018-Jul-14 03:30N 39°54' W 075°12'0 0.0
2018-Jul-14 03:00N 39°54' W 075°12'0 0.0
2018-Jul-14 02:30N 39°54' W 075°12'0 0.0
2018-Jul-14 01:58N 39°54' W 075°12'0 0.0
2018-Jul-14 01:28N 39°54' W 075°12'0 0.0
2018-Jul-14 01:00N 39°54' W 075°12'0 0.5
2018-Jul-14 00:30N 39°54' W 075°12'0 0.2
2018-Jul-14 00:00N 39°54' W 075°12'0 0.0
2018-Jul-13 23:30N 39°54' W 075°12'0 0.0
2018-Jul-13 23:00N 39°54' W 075°12'0 0.0
2018-Jul-13 22:30N 39°54' W 075°12'0 0.0
2018-Jul-13 22:00N 39°54' W 075°12'0 0.0
2018-Jul-13 21:30N 39°54' W 075°12'0 0.0
2018-Jul-13 21:01N 39°54' W 075°12'0 0.5
2018-Jul-13 20:30N 39°54' W 075°12'3 5.9
2018-Jul-13 20:01N 39°51' W 075°14'2 3.9
2018-Jul-13 19:30N 39°53' W 075°12'1 2.0
2018-Jul-13 19:01N 39°54' W 075°12'0 0.0
2018-Jul-13 18:30N 39°54' W 075°12'1 2.3
2018-Jul-13 18:01N 39°53' W 075°12'4 7.1
2018-Jul-13 17:31N 39°51' W 075°16'0 0.0
2018-Jul-13 17:00N 39°51' W 075°16'1 1.7
2018-Jul-13 16:30N 39°51' W 075°17'4 7.9
2018-Jul-13 16:00N 39°50' W 075°22'4 8.7
2018-Jul-13 15:30N 39°47' W 075°27'5 9.6
2018-Jul-13 15:00N 39°43' W 075°30'5 9.5
2018-Jul-13 14:30N 39°39' W 075°33'7 6.6
2018-Jul-13 13:30N 39°33' W 075°37'4 8.6
2018-Jul-13 13:00N 39°33' W 075°43'5 8.9
2018-Jul-13 12:30N 39°32' W 075°49'4 8.3
2018-Jul-13 12:00N 39°31' W 075°54'4 8.8
2018-Jul-13 11:30N 39°28' W 075°58'4 8.7
2018-Jul-13 11:00N 39°25' W 076°02'5 8.6
2018-Jul-13 10:28N 39°22' W 076°07'4 8.9
2018-Jul-13 10:00N 39°20' W 076°12'4 8.2
2018-Jul-13 09:30N 39°16' W 076°14'4 8.2
2018-Jul-13 09:00N 39°12' W 076°15'4 8.1
2018-Jul-13 08:30N 39°09' W 076°19'3 6.5
2018-Jul-13 08:00N 39°10' W 076°23'4 7.2
2018-Jul-13 07:30N 39°11' W 076°27'4 7.1
2018-Jul-13 07:00N 39°13' W 076°31'3 5.2
2018-Jul-13 06:30N 39°14' W 076°34'0 0.1
2018-Jul-13 06:00N 39°14' W 076°34'0 0.5
2018-Jul-13 05:30N 39°15' W 076°34'0 0.0
2018-Jul-13 04:59N 39°15' W 076°34'0 0.0
2018-Jul-13 04:26N 39°15' W 076°34'0 0.0
2018-Jul-13 04:00N 39°15' W 076°34'0 0.0
2018-Jul-13 03:30N 39°15' W 076°34'0 0.0
2018-Jul-13 03:00N 39°15' W 076°34'0 0.0
2018-Jul-13 02:30N 39°15' W 076°34'0 0.0
2018-Jul-13 02:01N 39°15' W 076°34'0 0.0
2018-Jul-13 01:28N 39°15' W 076°34'0 0.0
2018-Jul-13 00:58N 39°15' W 076°34'0 0.0
2018-Jul-13 00:29N 39°15' W 076°34'0 0.0
2018-Jul-13 00:00N 39°15' W 076°34'0 0.0
2018-Jul-12 23:30N 39°15' W 076°34'0 0.0
2018-Jul-12 23:01N 39°15' W 076°34'0 0.0
2018-Jul-12 22:31N 39°15' W 076°34'0 0.0
2018-Jul-12 22:01N 39°15' W 076°34'0 0.0
2018-Jul-12 21:30N 39°15' W 076°34'0 0.0
2018-Jul-12 21:01N 39°15' W 076°34'0 0.0
2018-Jul-12 20:31N 39°15' W 076°34'0 0.0
2018-Jul-12 20:00N 39°15' W 076°34'0 0.0
2018-Jul-12 19:30N 39°15' W 076°34'0 0.0
2018-Jul-12 19:00N 39°15' W 076°34'0 0.0
2018-Jul-12 18:31N 39°15' W 076°34'0 0.0
2018-Jul-12 18:00N 39°15' W 076°34'0 0.0
2018-Jul-12 17:30N 39°15' W 076°34'0 0.0
2018-Jul-12 17:01N 39°15' W 076°34'0 0.0
2018-Jul-12 16:31N 39°15' W 076°34'0 0.0
2018-Jul-12 16:01N 39°15' W 076°34'0 0.0
2018-Jul-12 15:31N 39°15' W 076°34'0 0.0
2018-Jul-12 15:00N 39°15' W 076°34'0 0.5
2018-Jul-12 14:30N 39°14' W 076°34'0 0.2
2018-Jul-12 14:00N 39°15' W 076°34'3 6.1
2018-Jul-12 13:31N 39°12' W 076°31'6 9.2
2018-Jul-12 12:51N 39°10' W 076°24'4 7.9
2018-Jul-12 12:18N 39°10' W 076°18'14 7.9
2018-Jul-12 10:35N 39°21' W 076°09'1 7.5
2018-Jul-12 10:31N 39°22' W 076°08'4 7.8
2018-Jul-12 10:00N 39°24' W 076°04'4 8.2
2018-Jul-12 09:30N 39°26' W 076°00'4 8.8
2018-Jul-12 09:01N 39°29' W 075°56'4 9.0
2018-Jul-12 08:31N 39°32' W 075°51'4 8.6
2018-Jul-12 08:00N 39°32' W 075°46'5 9.9
2018-Jul-12 07:31N 39°33' W 075°39'510.0
2018-Jul-12 07:01N 39°34' W 075°33'5 9.5
2018-Jul-12 06:30N 39°39' W 075°33'510.7
2018-Jul-12 06:00N 39°44' W 075°30'5 9.7
2018-Jul-12 05:31N 39°47' W 075°27'4 8.9
2018-Jul-12 05:01N 39°50' W 075°22'4 7.7
2018-Jul-12 04:30N 39°51' W 075°17'4 7.6
2018-Jul-12 04:01N 39°52' W 075°12'3 6.9
2018-Jul-12 03:30N 39°54' W 075°08'4 7.1
2018-Jul-12 03:00N 39°57' W 075°08'3 6.3
2018-Jul-12 02:31N 39°59' W 075°04'0 0.6
2018-Jul-12 02:00N 39°59' W 075°05'0 0.0
2018-Jul-12 01:30N 39°59' W 075°05'0 0.0
2018-Jul-12 00:58N 39°59' W 075°05'0 0.0
2018-Jul-12 00:28N 39°59' W 075°05'0 0.0
2018-Jul-11 23:58N 39°59' W 075°05'0 0.0
2018-Jul-11 23:29N 39°59' W 075°05'0 0.0
2018-Jul-11 22:59N 39°59' W 075°05'0 0.0
2018-Jul-11 22:29N 39°59' W 075°05'0 0.0
2018-Jul-11 22:00N 39°59' W 075°05'0 0.0
2018-Jul-11 21:30N 39°59' W 075°05'0 0.0
2018-Jul-11 21:00N 39°59' W 075°05'0 0.0
2018-Jul-11 20:28N 39°59' W 075°05'0 0.0
2018-Jul-11 19:58N 39°59' W 075°05'0 0.0
2018-Jul-11 19:30N 39°59' W 075°05'0 0.0
2018-Jul-11 19:01N 39°59' W 075°05'0 0.8
2018-Jul-11 18:30N 39°59' W 075°04'3 5.2
2018-Jul-11 18:00N 39°58' W 075°08'3 6.4
2018-Jul-11 17:28N 39°54' W 075°08'3 6.8
2018-Jul-11 17:00N 39°53' W 075°11'1 2.1
2018-Jul-11 16:30N 39°52' W 075°13'0 0.0
2018-Jul-11 15:58N 39°52' W 075°13'0 0.0
2018-Jul-11 15:28N 39°52' W 075°13'0 0.0
2018-Jul-11 14:56N 39°52' W 075°13'0 0.0
2018-Jul-11 14:29N 39°52' W 075°13'0 0.0
2018-Jul-11 13:59N 39°52' W 075°13'0 0.0
2018-Jul-11 13:30N 39°52' W 075°13'0 0.1
2018-Jul-11 13:00N 39°52' W 075°13'0 0.0
2018-Jul-11 12:30N 39°52' W 075°13'0 0.3
2018-Jul-11 11:58N 39°52' W 075°13'0 0.1
2018-Jul-11 11:28N 39°52' W 075°13'0 0.0
2018-Jul-11 10:58N 39°52' W 075°13'0 0.0
2018-Jul-11 10:29N 39°52' W 075°13'0 0.0
2018-Jul-11 09:59N 39°52' W 075°13'0 0.0
2018-Jul-11 09:29N 39°52' W 075°13'0 0.1
2018-Jul-11 09:00N 39°52' W 075°13'0 0.0
2018-Jul-11 08:30N 39°52' W 075°13'0 0.0
2018-Jul-11 08:00N 39°52' W 075°13'0 0.0
2018-Jul-11 07:28N 39°52' W 075°13'0 0.0
2018-Jul-11 06:58N 39°52' W 075°13'2 3.7
2018-Jul-11 06:30N 39°53' W 075°12'0 0.1
2018-Jul-11 06:00N 39°54' W 075°12'0 0.0
2018-Jul-11 05:30N 39°54' W 075°12'1 1.3
2018-Jul-11 05:00N 39°53' W 075°12'1 1.1
2018-Jul-11 04:28N 39°54' W 075°12'  

Dump ship's entire track history